Time;durP1;ratioP1;P1;durP2;ratioP2;P2;SDS_P1;SDS_P2;PMS_P1;PMS_P2;Temp;Humidity;BMP_temperature;BMP_pressure;BME280_temperature;BME280_humidity;BME280_pressure;Samples;Min_cycle;Max_cycle;Signal;HPM_P1;HPM_P2
2024/01/03 00:02:35;;;;;;;;;;;;;;;8.05;68.24;99208.63;5419505;32;34606;-74
2024/01/03 00:05:38;;;;;;;;;;;;;;;7.96;69.45;99206.47;5418776;32;33899;-72
2024/01/03 00:08:40;;;;;;;;;;;;;;;7.89;70.17;99200.69;5410864;32;33411;-71
2024/01/03 00:11:45;;;;;;;;;;;;;;;8.48;66.92;99193.53;5420239;32;35785;-70
2024/01/03 00:14:47;;;;;;;;;;;;;;;7.83;69.10;99198.34;5421821;32;34001;-74
2024/01/03 00:17:50;;;;;;;;;;;;;;;8.01;69.05;99197.50;5396394;32;33769;-74
2024/01/03 00:20:54;;;;;;;;;;;;;;;8.02;68.89;99199.19;5417338;32;34085;-70
2024/01/03 00:23:58;;;;;;;;;;;;;;;7.82;68.58;99191.44;5403253;32;33838;-73
2024/01/03 00:27:00;;;;;;;;;;;;;;;7.15;73.46;99191.84;5416256;32;33442;-70
2024/01/03 00:30:06;;;;;;;;;;;;;;;7.88;71.02;99176.28;5420569;32;33132;-71
2024/01/03 00:33:08;;;;;;;;;;;;;;;7.49;70.91;99193.84;5418156;32;33283;-74
2024/01/03 00:36:11;;;;;;;;;;;;;;;8.77;66.86;99195.53;5409609;32;34105;-74
2024/01/03 00:39:13;;;;;;;;;;;;;;;8.66;66.75;99206.56;5421998;32;34300;-70
2024/01/03 00:42:16;;;;;;;;;;;;;;;8.66;67.10;99211.78;5410864;32;34391;-72
2024/01/03 00:45:18;;;;;;;;;;;;;;;8.66;66.64;99219.66;5421519;32;34219;-71
2024/01/03 00:48:20;;;;;;;;;;;;;;;8.70;66.72;99222.97;5411777;32;33044;-74
2024/01/03 00:51:23;;;;;;;;;;;;;;;8.26;69.03;99227.72;5419454;32;33848;-70
2024/01/03 00:54:25;;;;;;;;;;;;;;;8.07;69.23;99235.59;5421851;32;33372;-71
2024/01/03 00:57:27;;;;;;;;;;;;;;;7.85;70.03;99238.34;5418446;32;33735;-76
2024/01/03 01:00:29;;;;;;;;;;;;;;;7.56;71.50;99240.53;5415337;32;33021;-74
2024/01/03 01:03:32;;;;;;;;;;;;;;;8.31;69.22;99236.22;5415137;32;33271;-73
2024/01/03 01:06:34;;;;;;;;;;;;;;;7.86;69.78;99216.53;5411281;32;33847;-70
2024/01/03 01:09:36;;;;;;;;;;;;;;;8.63;67.35;99200.59;5418735;32;34554;-72
2024/01/03 01:12:38;;;;;;;;;;;;;;;9.14;64.59;99191.84;5420938;32;34537;-71
2024/01/03 01:15:40;;;;;;;;;;;;;;;8.63;65.90;99190.12;5426326;32;33666;-75
2024/01/03 01:18:43;;;;;;;;;;;;;;;8.57;66.47;99190.47;5417974;32;33789;-70
2024/01/03 01:21:45;;;;;;;;;;;;;;;8.49;67.28;99208.31;5418687;32;34667;-73
2024/01/03 01:24:47;;;;;;;;;;;;;;;8.68;66.84;99215.16;5424142;32;34029;-70
2024/01/03 01:27:49;;;;;;;;;;;;;;;8.83;66.58;99220.59;5421183;32;33266;-71
2024/01/03 01:30:51;;;;;;;;;;;;;;;8.94;65.87;99199.91;5416248;32;33590;-70
2024/01/03 01:33:53;;;;;;;;;;;;;;;9.09;64.79;99200.91;5417883;32;33616;-74
2024/01/03 01:36:56;;;;;;;;;;;;;;;8.95;65.20;99196.34;5421215;32;34087;-76
2024/01/03 01:39:58;;;;;;;;;;;;;;;8.74;65.42;99173.88;5420408;32;33750;-73
2024/01/03 01:43:00;;;;;;;;;;;;;;;8.64;66.07;99182.22;5417510;32;33947;-73
2024/01/03 01:46:02;;;;;;;;;;;;;;;8.65;66.07;99176.03;5426251;32;33710;-69
2024/01/03 01:49:04;;;;;;;;;;;;;;;8.58;66.12;99172.03;5412978;32;33888;-73
2024/01/03 01:52:10;;;;;;;;;;;;;;;8.25;66.98;99168.44;5421060;32;33450;-70
2024/01/03 01:55:12;;;;;;;;;;;;;;;8.25;67.14;99171.91;5397747;32;35112;-73
2024/01/03 01:58:14;;;;;;;;;;;;;;;8.19;67.52;99169.59;5418205;32;33885;-74
2024/01/03 02:01:17;;;;;;;;;;;;;;;8.21;67.60;99162.50;5396473;32;35353;-71
2024/01/03 02:04:20;;;;;;;;;;;;;;;8.18;67.70;99153.94;5399740;32;33791;-71
2024/01/03 02:07:22;;;;;;;;;;;;;;;8.32;67.42;99141.91;5420586;32;34176;-71
2024/01/03 02:10:24;;;;;;;;;;;;;;;8.17;68.05;99147.87;5423348;32;33743;-70
2024/01/03 02:13:26;;;;;;;;;;;;;;;8.21;67.42;99152.03;5421504;32;33284;-72
2024/01/03 02:16:28;;;;;;;;;;;;;;;8.15;67.73;99139.25;5420927;32;33323;-73
2024/01/03 02:19:31;;;;;;;;;;;;;;;8.12;68.04;99135.03;5416716;32;33871;-70
2024/01/03 02:22:33;;;;;;;;;;;;;;;8.02;68.30;99133.75;5416693;32;33383;-74
2024/01/03 02:25:35;;;;;;;;;;;;;;;8.06;68.14;99137.94;5414836;32;33771;-71
2024/01/03 02:28:37;;;;;;;;;;;;;;;8.01;68.68;99145.16;5420338;32;33973;-74
2024/01/03 02:31:40;;;;;;;;;;;;;;;8.04;68.44;99136.28;5416022;32;33305;-71
2024/01/03 02:34:42;;;;;;;;;;;;;;;8.16;68.03;99133.09;5409466;32;33840;-73
2024/01/03 02:37:44;;;;;;;;;;;;;;;8.09;68.37;99122.06;5415350;32;33253;-70
2024/01/03 02:40:46;;;;;;;;;;;;;;;8.50;67.46;99118.34;5422987;32;34634;-70
2024/01/03 02:43:48;;;;;;;;;;;;;;;8.38;67.55;99104.13;5421552;32;34355;-73
2024/01/03 02:46:50;;;;;;;;;;;;;;;8.20;68.06;99097.16;5418273;32;33636;-73
2024/01/03 02:49:57;;;;;;;;;;;;;;;7.92;69.38;99095.03;5424135;32;33909;-74
2024/01/03 02:53:01;;;;;;;;;;;;;;;7.66;70.72;99093.66;5416433;32;34004;-73
2024/01/03 02:56:03;;;;;;;;;;;;;;;7.55;71.87;99099.44;5413774;32;33231;-69
2024/01/03 02:59:06;;;;;;;;;;;;;;;7.42;72.28;99078.25;5414824;32;34114;-70
2024/01/03 03:02:08;;;;;;;;;;;;;;;7.39;72.58;99094.06;5420185;32;33628;-73
2024/01/03 03:05:10;;;;;;;;;;;;;;;7.23;73.74;99093.94;5419113;32;33630;-72
2024/01/03 03:08:12;;;;;;;;;;;;;;;7.33;73.91;99084.72;5405170;32;34465;-73
2024/01/03 03:11:14;;;;;;;;;;;;;;;7.55;73.09;99088.97;5422564;32;33460;-74
2024/01/03 03:14:16;;;;;;;;;;;;;;;7.70;72.48;99100.47;5416456;32;33948;-72
2024/01/03 03:17:19;;;;;;;;;;;;;;;7.68;72.73;99091.84;5424523;32;33286;-74
2024/01/03 03:20:21;;;;;;;;;;;;;;;7.68;73.04;99107.53;5419607;32;33821;-70
2024/01/03 03:23:23;;;;;;;;;;;;;;;7.67;73.12;99104.09;5415267;32;34060;-73
2024/01/03 03:26:25;;;;;;;;;;;;;;;8.01;71.86;99123.38;5421196;32;33443;-73
2024/01/03 03:29:27;;;;;;;;;;;;;;;7.86;71.94;99115.34;5414606;32;33597;-74
2024/01/03 03:32:30;;;;;;;;;;;;;;;7.86;72.14;99104.91;5410882;32;34097;-74
2024/01/03 03:35:32;;;;;;;;;;;;;;;7.85;72.35;99108.41;5413974;32;33475;-71
2024/01/03 03:38:35;;;;;;;;;;;;;;;8.06;71.61;99110.94;5411716;32;32230;-73
2024/01/03 03:41:37;;;;;;;;;;;;;;;8.03;71.55;99111.06;5407988;32;33913;-70
2024/01/03 03:44:40;;;;;;;;;;;;;;;7.89;72.58;99109.13;5413679;32;34479;-69
2024/01/03 03:47:43;;;;;;;;;;;;;;;8.15;71.73;99107.84;5425593;32;34074;-71
2024/01/03 03:50:45;;;;;;;;;;;;;;;8.43;71.02;99103.88;5423105;32;33723;-74
2024/01/03 03:53:47;;;;;;;;;;;;;;;8.29;71.45;99113.22;5416108;32;33292;-74
2024/01/03 03:56:49;;;;;;;;;;;;;;;8.28;71.71;99110.69;5409634;32;33470;-70
2024/01/03 03:59:51;;;;;;;;;;;;;;;8.26;71.95;99107.31;5426471;32;33836;-70
2024/01/03 04:02:54;;;;;;;;;;;;;;;8.04;73.35;99112.75;5416768;32;34042;-70
2024/01/03 04:05:56;;;;;;;;;;;;;;;8.40;72.45;99120.59;5419991;32;33330;-73
2024/01/03 04:08:59;;;;;;;;;;;;;;;8.52;71.67;99129.59;5420494;32;33252;-70
2024/01/03 04:12:01;;;;;;;;;;;;;;;8.21;72.70;99135.50;5408435;32;33309;-71
2024/01/03 04:15:04;;;;;;;;;;;;;;;8.33;73.54;99134.88;5423659;32;33801;-70
2024/01/03 04:18:06;;;;;;;;;;;;;;;8.57;72.77;99144.16;5406906;32;33672;-74
2024/01/03 04:21:09;;;;;;;;;;;;;;;8.62;72.08;99157.00;5411982;32;33948;-70
2024/01/03 04:24:11;;;;;;;;;;;;;;;8.50;72.52;99140.16;5414483;32;33186;-72
2024/01/03 04:27:13;;;;;;;;;;;;;;;8.64;72.71;99140.31;5414851;32;33775;-72
2024/01/03 04:30:15;;;;;;;;;;;;;;;8.56;73.90;99137.22;5425194;32;33354;-74
2024/01/03 04:33:18;;;;;;;;;;;;;;;8.19;75.40;99138.19;5408918;32;33672;-74
2024/01/03 04:36:20;;;;;;;;;;;;;;;8.77;73.83;99124.81;5423785;32;34501;-70
2024/01/03 04:39:22;;;;;;;;;;;;;;;8.66;74.00;99120.12;5406672;32;33526;-74
2024/01/03 04:42:25;;;;;;;;;;;;;;;9.05;71.26;99112.88;5421638;32;34173;-69
2024/01/03 04:45:27;;;;;;;;;;;;;;;8.59;72.91;99116.13;5420249;32;33049;-70
2024/01/03 04:48:29;;;;;;;;;;;;;;;8.51;74.11;99120.06;5414557;32;33094;-70
2024/01/03 04:51:32;;;;;;;;;;;;;;;8.45;74.34;99115.13;5422702;32;33682;-73
2024/01/03 04:54:34;;;;;;;;;;;;;;;8.08;76.10;99122.16;5415422;32;33532;-70
2024/01/03 04:57:36;;;;;;;;;;;;;;;8.00;77.12;99114.69;5418380;32;34765;-74
2024/01/03 05:00:38;;;;;;;;;;;;;;;7.90;77.53;99109.97;5413310;32;34491;-74
2024/01/03 05:03:41;;;;;;;;;;;;;;;7.81;78.28;99104.25;5402525;32;33856;-73
2024/01/03 05:06:43;;;;;;;;;;;;;;;7.76;78.79;99085.31;5405443;32;33749;-73
2024/01/03 05:09:46;;;;;;;;;;;;;;;7.81;79.09;99091.19;5413055;32;33332;-70
2024/01/03 05:12:48;;;;;;;;;;;;;;;7.79;79.45;99092.16;5418366;32;33379;-69
2024/01/03 05:15:50;;;;;;;;;;;;;;;8.08;78.69;99112.53;5417106;32;33323;-71
2024/01/03 05:18:52;;;;;;;;;;;;;;;8.27;78.25;99111.63;5418980;32;33368;-73
2024/01/03 05:21:55;;;;;;;;;;;;;;;8.67;76.32;99115.72;5413603;32;33307;-70
2024/01/03 05:24:57;;;;;;;;;;;;;;;8.84;74.96;99120.09;5419514;32;33653;-70
2024/01/03 05:27:59;;;;;;;;;;;;;;;8.91;74.49;99124.09;5417029;32;33919;-73
2024/01/03 05:31:01;;;;;;;;;;;;;;;8.93;74.14;99111.75;5395033;32;34160;-74
2024/01/03 05:34:04;;;;;;;;;;;;;;;8.91;74.52;99106.59;5420252;32;34192;-73
2024/01/03 05:37:06;;;;;;;;;;;;;;;8.29;76.18;99113.22;5409522;32;34367;-74
2024/01/03 05:40:09;;;;;;;;;;;;;;;8.26;77.36;99120.41;5421141;32;33397;-72
2024/01/03 05:43:11;;;;;;;;;;;;;;;8.17;77.36;99108.59;5420376;32;33675;-74
2024/01/03 05:46:13;;;;;;;;;;;;;;;8.07;78.05;99118.69;5424027;32;33793;-74
2024/01/03 05:49:15;;;;;;;;;;;;;;;8.25;77.84;99122.19;5416145;32;33801;-71
2024/01/03 05:52:18;;;;;;;;;;;;;;;8.33;77.32;99124.41;5406504;32;33231;-76
2024/01/03 05:55:20;;;;;;;;;;;;;;;8.06;78.43;99110.94;5420197;32;34389;-74
2024/01/03 05:58:22;;;;;;;;;;;;;;;7.90;79.32;99099.50;5416272;32;33976;-72
2024/01/03 06:01:24;;;;;;;;;;;;;;;7.85;79.79;99116.25;5419671;32;34290;-74
2024/01/03 06:04:26;;;;;;;;;;;;;;;7.72;80.77;99127.38;5413969;32;33926;-69
2024/01/03 06:07:28;;;;;;;;;;;;;;;7.74;80.82;99136.03;5412268;32;34193;-71
2024/01/03 06:10:30;;;;;;;;;;;;;;;7.78;80.70;99132.31;5417065;32;33243;-71
2024/01/03 06:13:32;;;;;;;;;;;;;;;7.94;79.90;99135.06;5407465;32;34140;-71
2024/01/03 06:16:34;;;;;;;;;;;;;;;7.96;79.56;99134.06;5416997;32;33699;-74
2024/01/03 06:19:36;;;;;;;;;;;;;;;8.11;79.63;99141.19;5415269;32;33939;-73
2024/01/03 06:22:38;;;;;;;;;;;;;;;8.36;78.04;99135.59;5421227;32;34384;-72
2024/01/03 06:25:40;;;;;;;;;;;;;;;8.29;78.47;99138.56;5404763;32;33347;-74
2024/01/03 06:28:42;;;;;;;;;;;;;;;8.22;78.40;99148.50;5407033;32;33062;-70
2024/01/03 06:31:44;;;;;;;;;;;;;;;8.03;79.31;99135.44;5415600;32;33216;-70
2024/01/03 06:34:46;;;;;;;;;;;;;;;8.13;79.40;99133.25;5417843;32;33449;-73
2024/01/03 06:37:48;;;;;;;;;;;;;;;8.05;79.22;99133.63;5421265;32;34889;-74
2024/01/03 06:40:50;;;;;;;;;;;;;;;8.13;79.38;99134.09;5419762;32;34156;-72
2024/01/03 06:43:52;;;;;;;;;;;;;;;8.05;79.01;99124.91;5399392;32;33612;-73
2024/01/03 06:46:54;;;;;;;;;;;;;;;8.02;79.28;99138.16;5415900;32;34613;-71
2024/01/03 06:49:56;;;;;;;;;;;;;;;7.84;80.69;99132.87;5401070;32;33292;-73
2024/01/03 06:52:58;;;;;;;;;;;;;;;7.96;80.02;99131.44;5424015;32;33843;-70
2024/01/03 06:56:00;;;;;;;;;;;;;;;8.13;79.71;99141.94;5427655;32;33928;-72
2024/01/03 06:59:02;;;;;;;;;;;;;;;8.37;78.23;99142.56;5431492;32;34032;-74
2024/01/03 07:02:05;;;;;;;;;;;;;;;8.69;76.58;99126.94;5428873;32;34020;-71
2024/01/03 07:05:07;;;;;;;;;;;;;;;8.67;76.26;99127.03;5405396;32;33757;-70
2024/01/03 07:08:10;;;;;;;;;;;;;;;8.75;76.57;99131.87;5410530;32;34107;-71
2024/01/03 07:11:12;;;;;;;;;;;;;;;8.95;75.08;99136.97;5427874;32;35269;-73
2024/01/03 07:14:16;;;;;;;;;;;;;;;8.98;74.98;99130.69;5431125;32;33424;-70
2024/01/03 07:17:18;;;;;;;;;;;;;;;9.01;74.70;99127.91;5411337;32;33127;-70
2024/01/03 07:20:20;;;;;;;;;;;;;;;9.09;74.31;99131.00;5432175;32;34271;-70
2024/01/03 07:23:22;;;;;;;;;;;;;;;8.80;75.05;99150.00;5423228;32;33690;-71
2024/01/03 07:26:24;;;;;;;;;;;;;;;9.28;75.01;99143.12;5432782;32;33326;-73
2024/01/03 07:29:26;;;;;;;;;;;;;;;8.90;75.07;99141.59;5423883;32;33362;-74
2024/01/03 07:32:28;;;;;;;;;;;;;;;9.42;73.20;99145.84;5424398;32;33858;-70
2024/01/03 07:35:30;;;;;;;;;;;;;;;9.37;74.17;99153.09;5431899;32;33578;-71
2024/01/03 07:38:33;;;;;;;;;;;;;;;9.95;70.58;99149.91;5429019;32;33744;-71
2024/01/03 07:41:36;;;;;;;;;;;;;;;9.43;72.83;99144.91;5432623;32;33697;-70
2024/01/03 07:44:41;;;;;;;;;;;;;;;9.93;70.92;99138.66;5429896;32;33775;-71
2024/01/03 07:47:43;;;;;;;;;;;;;;;9.76;71.01;99139.59;5429542;32;32918;-73
2024/01/03 07:50:46;;;;;;;;;;;;;;;9.67;71.47;99142.72;5421337;32;33776;-75
2024/01/03 07:53:48;;;;;;;;;;;;;;;9.40;72.68;99138.06;5424234;32;33917;-70
2024/01/03 07:56:50;;;;;;;;;;;;;;;9.19;74.05;99141.81;5426560;32;33399;-74
2024/01/03 07:59:53;;;;;;;;;;;;;;;9.23;73.70;99127.62;5426425;32;33646;-70
2024/01/03 08:02:55;;;;;;;;;;;;;;;9.20;74.26;99139.09;5427935;32;34381;-74
2024/01/03 08:05:57;;;;;;;;;;;;;;;9.19;74.66;99128.72;5396928;32;33766;-74
2024/01/03 08:09:02;;;;;;;;;;;;;;;9.43;73.82;99134.41;5427635;32;36171;-70
2024/01/03 08:12:05;;;;;;;;;;;;;;;9.49;73.70;99120.97;5422084;32;33696;-74
2024/01/03 08:15:07;;;;;;;;;;;;;;;10.02;71.84;99132.87;5422537;32;33489;-71
2024/01/03 08:18:09;;;;;;;;;;;;;;;10.36;70.04;99125.72;5423115;32;34781;-72
2024/01/03 08:21:12;;;;;;;;;;;;;;;10.49;69.57;99142.44;5412036;32;33296;-76
2024/01/03 08:24:14;;;;;;;;;;;;;;;10.66;68.89;99130.97;5422298;32;34349;-72
2024/01/03 08:27:17;;;;;;;;;;;;;;;11.03;67.96;99137.50;5424439;32;33209;-71
2024/01/03 08:30:19;;;;;;;;;;;;;;;11.43;65.93;99151.66;5429080;32;33352;-71
2024/01/03 08:33:21;;;;;;;;;;;;;;;11.54;65.87;99153.63;5424517;32;34717;-74
2024/01/03 08:36:37;;;;;;;;;;;;;;;11.65;64.90;99144.09;5424834;32;33942;-74
2024/01/03 08:39:39;;;;;;;;;;;;;;;11.70;64.89;99148.25;5428208;32;34875;-74
2024/01/03 08:42:41;;;;;;;;;;;;;;;11.68;65.34;99153.63;5413580;32;33738;-71
2024/01/03 08:45:43;;;;;;;;;;;;;;;12.04;63.17;99154.84;5426176;32;33803;-70
2024/01/03 08:48:45;;;;;;;;;;;;;;;12.10;62.14;99151.81;5425643;32;33781;-75
2024/01/03 08:51:48;;;;;;;;;;;;;;;12.35;60.86;99148.44;5425398;32;34620;-71
2024/01/03 08:54:50;;;;;;;;;;;;;;;12.39;60.90;99160.47;5415496;32;33881;-74
2024/01/03 08:57:56;;;;;;;;;;;;;;;12.21;61.12;99167.78;5426304;32;33750;-74
2024/01/03 09:00:58;;;;;;;;;;;;;;;12.40;60.86;99163.00;5430643;32;34682;-74
2024/01/03 09:04:01;;;;;;;;;;;;;;;12.27;61.29;99166.53;5417433;32;33777;-71
2024/01/03 09:07:03;;;;;;;;;;;;;;;12.52;60.48;99184.22;5427933;32;34579;-70
2024/01/03 09:10:06;;;;;;;;;;;;;;;12.72;59.72;99181.94;5412910;32;33580;-72
2024/01/03 09:13:08;;;;;;;;;;;;;;;12.40;60.26;99185.87;5421473;32;33819;-70
2024/01/03 09:16:10;;;;;;;;;;;;;;;12.36;59.04;99179.94;5428307;32;33179;-73
2024/01/03 09:19:12;;;;;;;;;;;;;;;12.28;60.51;99198.06;5426624;32;33307;-70
2024/01/03 09:22:15;;;;;;;;;;;;;;;12.47;60.05;99185.37;5424127;32;34347;-73
2024/01/03 09:25:17;;;;;;;;;;;;;;;12.08;62.08;99182.69;5427899;32;34040;-70
2024/01/03 09:28:19;;;;;;;;;;;;;;;12.51;60.65;99179.91;5427857;32;33765;-74
2024/01/03 09:31:21;;;;;;;;;;;;;;;12.74;59.45;99173.94;5424540;32;32313;-75
2024/01/03 09:34:23;;;;;;;;;;;;;;;12.88;60.08;99176.50;5424145;32;34280;-74
2024/01/03 09:37:28;;;;;;;;;;;;;;;13.05;59.62;99174.50;5426099;32;34416;-71
2024/01/03 09:40:31;;;;;;;;;;;;;;;11.51;61.71;99186.22;5424681;32;36177;-70
2024/01/03 09:43:35;;;;;;;;;;;;;;;12.68;58.68;99179.63;5423414;32;34148;-74
2024/01/03 09:46:37;;;;;;;;;;;;;;;12.68;58.88;99179.63;5423195;32;33981;-75
2024/01/03 09:49:39;;;;;;;;;;;;;;;12.79;58.52;99177.09;5424404;32;33841;-72
2024/01/03 09:52:41;;;;;;;;;;;;;;;13.23;57.01;99178.53;5421186;32;33739;-72
2024/01/03 09:55:43;;;;;;;;;;;;;;;13.63;56.08;99163.41;5416198;32;33227;-74
2024/01/03 09:58:46;;;;;;;;;;;;;;;13.49;54.37;99167.00;5427408;32;34917;-71
2024/01/03 10:01:58;;;;;;;;;;;;;;;13.69;55.00;99177.97;5426922;32;34121;-76
2024/01/03 10:05:01;;;;;;;;;;;;;;;13.96;54.06;99160.13;5427979;32;34179;-74
2024/01/03 10:08:18;;;;;;;;;;;;;;;14.02;51.90;99175.53;5421853;32;34242;-75
2024/01/03 10:11:20;;;;;;;;;;;;;;;14.10;51.18;99177.63;5419795;32;33181;-71
2024/01/03 10:14:22;;;;;;;;;;;;;;;13.82;53.07;99178.78;5412304;32;33908;-70
2024/01/03 10:17:31;;;;;;;;;;;;;;;14.00;52.43;99177.47;5417987;32;34618;-71
2024/01/03 10:20:34;;;;;;;;;;;;;;;14.84;51.41;99178.34;5425964;32;33144;-71
2024/01/03 10:23:37;;;;;;;;;;;;;;;14.06;53.29;99177.00;5422405;32;34044;-74
2024/01/03 10:26:39;;;;;;;;;;;;;;;14.56;52.00;99175.12;5427143;32;33867;-72
2024/01/03 10:29:41;;;;;;;;;;;;;;;14.79;51.31;99176.03;5421957;32;33100;-71
2024/01/03 10:32:43;;;;;;;;;;;;;;;15.64;48.46;99173.88;5419507;32;33199;-74
2024/01/03 10:35:46;;;;;;;;;;;;;;;15.37;49.80;99174.19;5425207;32;33967;-75
2024/01/03 10:38:48;;;;;;;;;;;;;;;14.79;51.08;99181.31;5418098;32;33317;-70
2024/01/03 10:41:51;;;;;;;;;;;;;;;14.46;51.61;99166.19;5408118;32;33823;-76
2024/01/03 10:44:53;;;;;;;;;;;;;;;14.32;52.65;99172.47;5407625;32;33885;-75
2024/01/03 10:47:55;;;;;;;;;;;;;;;14.64;51.79;99185.13;5428243;32;33187;-71
2024/01/03 10:50:57;;;;;;;;;;;;;;;13.85;52.92;99173.28;5423299;32;34713;-71
2024/01/03 10:53:59;;;;;;;;;;;;;;;14.59;51.69;99172.25;5420604;32;34114;-71
2024/01/03 10:57:02;;;;;;;;;;;;;;;14.87;51.01;99162.22;5426053;32;33481;-71
2024/01/03 11:00:12;;;;;;;;;;;;;;;14.78;52.50;99166.41;5428384;32;34241;-71
2024/01/03 11:03:23;;;;;;;;;;;;;;;14.44;54.12;99162.78;5412671;32;33591;-70
2024/01/03 11:06:40;;;;;;;;;;;;;;;14.13;55.93;99158.91;5405691;32;33608;-72
2024/01/03 11:09:44;;;;;;;;;;;;;;;14.59;54.80;99155.53;5422145;32;31909;-70
2024/01/03 11:12:46;;;;;;;;;;;;;;;14.66;54.31;99148.81;5408471;32;33765;-75
2024/01/03 11:15:48;;;;;;;;;;;;;;;14.81;53.89;99138.88;5411022;32;34721;-75
2024/01/03 11:18:51;;;;;;;;;;;;;;;15.10;52.81;99142.78;5425687;32;33321;-71
2024/01/03 11:21:54;;;;;;;;;;;;;;;15.18;52.31;99140.37;5424448;32;34538;-74
2024/01/03 11:24:57;;;;;;;;;;;;;;;15.10;52.48;99147.25;5403079;32;33682;-76
2024/01/03 11:28:21;;;;;;;;;;;;;;;15.04;52.50;99137.13;5415156;32;33857;-75
2024/01/03 11:31:42;;;;;;;;;;;;;;;15.23;52.24;99134.75;5420675;32;33499;-75
2024/01/03 11:34:45;;;;;;;;;;;;;;;15.26;51.66;99131.84;5423152;32;35233;-71
2024/01/03 11:37:52;;;;;;;;;;;;;;;15.26;51.33;99125.69;5417873;32;33756;-72
2024/01/03 11:40:54;;;;;;;;;;;;;;;14.79;52.85;99120.47;5429561;32;34479;-76
2024/01/03 11:43:56;;;;;;;;;;;;;;;14.60;52.98;99128.97;5417165;32;33826;-75
2024/01/03 11:47:07;;;;;;;;;;;;;;;14.55;53.44;99130.28;5422243;32;34784;-72
2024/01/03 11:50:12;;;;;;;;;;;;;;;14.68;52.80;99122.25;5428100;32;33917;-70
2024/01/03 11:53:14;;;;;;;;;;;;;;;14.83;51.90;99118.47;5407606;32;33436;-75
2024/01/03 11:56:28;;;;;;;;;;;;;;;14.92;51.32;99117.75;5416850;32;34411;-71
2024/01/03 11:59:33;;;;;;;;;;;;;;;14.99;51.12;99107.53;5422166;32;33816;-70
2024/01/03 12:02:35;;;;;;;;;;;;;;;14.99;51.09;99113.66;5421475;32;33772;-74
2024/01/03 12:05:46;;;;;;;;;;;;;;;14.96;51.43;99105.12;5410763;32;33913;-75
2024/01/03 12:08:48;;;;;;;;;;;;;;;15.00;51.66;99093.34;5425846;32;34246;-74
2024/01/03 12:11:50;;;;;;;;;;;;;;;15.90;49.75;99094.94;5427141;32;33306;-72
2024/01/03 12:14:53;;;;;;;;;;;;;;;15.61;50.44;99094.63;5425374;32;34001;-71
2024/01/03 12:18:05;;;;;;;;;;;;;;;15.98;49.98;99102.28;5423662;32;33755;-76
2024/01/03 12:21:11;;;;;;;;;;;;;;;15.54;51.32;99092.59;5428747;32;33768;-75
2024/01/03 12:24:13;;;;;;;;;;;;;;;15.08;52.85;99105.03;5402240;32;33440;-74
2024/01/03 12:27:22;;;;;;;;;;;;;;;15.28;52.62;99097.31;5427700;32;33069;-74
2024/01/03 12:30:24;;;;;;;;;;;;;;;15.04;52.73;99106.22;5424901;32;34029;-75
2024/01/03 12:33:26;;;;;;;;;;;;;;;14.83;53.71;99107.88;5416541;32;33963;-75
2024/01/03 12:36:29;;;;;;;;;;;;;;;14.59;54.19;99102.66;5426637;32;33668;-74
2024/01/03 12:39:35;;;;;;;;;;;;;;;15.02;53.16;99100.22;5404356;32;33624;-72
2024/01/03 12:42:37;;;;;;;;;;;;;;;15.30;51.59;99100.69;5420496;32;33905;-71
2024/01/03 12:45:44;;;;;;;;;;;;;;;15.20;51.88;99099.72;5405721;32;33896;-72
2024/01/03 12:48:47;;;;;;;;;;;;;;;15.52;51.25;99097.16;5428765;32;34544;-71
2024/01/03 12:51:49;;;;;;;;;;;;;;;15.62;50.55;99084.91;5425426;32;33235;-74
2024/01/03 12:54:51;;;;;;;;;;;;;;;15.16;51.99;99096.47;5432636;32;34675;-71
2024/01/03 12:57:53;;;;;;;;;;;;;;;15.67;50.70;99093.34;5424455;32;33826;-75
2024/01/03 13:00:56;;;;;;;;;;;;;;;15.78;51.30;99092.44;5418380;32;33963;-71
2024/01/03 13:03:58;;;;;;;;;;;;;;;16.40;48.86;99100.53;5413562;32;37251;-75
2024/01/03 13:07:00;;;;;;;;;;;;;;;16.41;49.07;99101.37;5401358;32;33335;-76
2024/01/03 13:10:03;;;;;;;;;;;;;;;16.73;48.75;99106.66;5425500;32;33902;-74
2024/01/03 13:13:05;;;;;;;;;;;;;;;17.56;45.94;99103.84;5428858;32;33458;-71
2024/01/03 13:16:08;;;;;;;;;;;;;;;16.78;47.70;99107.97;5409025;32;34276;-74
2024/01/03 13:19:10;;;;;;;;;;;;;;;16.27;49.52;99109.66;5427860;32;33900;-72
2024/01/03 13:22:12;;;;;;;;;;;;;;;15.94;50.28;99120.25;5420536;32;33357;-71
2024/01/03 13:25:14;;;;;;;;;;;;;;;15.99;50.92;99122.53;5430527;32;33491;-74
2024/01/03 13:28:16;;;;;;;;;;;;;;;16.04;50.62;99122.16;5419064;32;34123;-75
2024/01/03 13:31:18;;;;;;;;;;;;;;;15.89;51.22;99130.38;5426643;32;34519;-71
2024/01/03 13:34:20;;;;;;;;;;;;;;;15.55;52.10;99131.38;5427193;32;33199;-74
2024/01/03 13:37:22;;;;;;;;;;;;;;;15.99;51.08;99130.47;5415548;32;34319;-71
2024/01/03 13:40:24;;;;;;;;;;;;;;;15.74;51.69;99120.19;5400228;32;34388;-75
2024/01/03 13:43:27;;;;;;;;;;;;;;;15.93;50.67;99107.13;5409055;32;34464;-71
2024/01/03 13:46:29;;;;;;;;;;;;;;;16.01;50.83;99103.84;5429207;32;34036;-76
2024/01/03 13:49:31;;;;;;;;;;;;;;;15.81;51.46;99102.81;5421864;32;34048;-71
2024/01/03 13:52:34;;;;;;;;;;;;;;;16.40;49.90;99115.63;5427222;32;33993;-70
2024/01/03 13:55:36;;;;;;;;;;;;;;;15.75;51.79;99121.84;5426665;32;33508;-75
2024/01/03 13:58:38;;;;;;;;;;;;;;;15.74;52.39;99109.56;5421510;32;34064;-71
2024/01/03 14:01:40;;;;;;;;;;;;;;;15.68;52.88;99121.50;5429301;32;33110;-71
2024/01/03 14:04:42;;;;;;;;;;;;;;;15.42;53.75;99116.44;5408718;32;33633;-71
2024/01/03 14:07:44;;;;;;;;;;;;;;;15.89;53.19;99114.47;5423659;32;34565;-75
2024/01/03 14:10:46;;;;;;;;;;;;;;;16.77;50.35;99113.41;5421929;32;33229;-75
2024/01/03 14:13:52;;;;;;;;;;;;;;;16.66;50.49;99124.87;5422176;32;33781;-72
2024/01/03 14:17:00;;;;;;;;;;;;;;;16.58;50.27;99111.44;5426009;32;34594;-70
2024/01/03 14:20:06;;;;;;;;;;;;;;;15.81;51.92;99121.34;5429916;32;33253;-71
2024/01/03 14:23:08;;;;;;;;;;;;;;;16.07;51.61;99122.72;5423335;32;33840;-74
2024/01/03 14:26:10;;;;;;;;;;;;;;;15.36;53.69;99127.50;5429076;32;34019;-71
2024/01/03 14:29:12;;;;;;;;;;;;;;;15.50;52.97;99130.88;5426211;32;34513;-74
2024/01/03 14:32:14;;;;;;;;;;;;;;;15.44;53.03;99124.25;5408601;32;33780;-75
2024/01/03 14:35:16;;;;;;;;;;;;;;;15.11;54.09;99135.69;5417298;32;34137;-75
2024/01/03 14:38:18;;;;;;;;;;;;;;;14.36;56.47;99147.50;5412534;32;33156;-75
2024/01/03 14:41:21;;;;;;;;;;;;;;;14.22;57.27;99147.66;5428547;32;34440;-71
2024/01/03 14:44:24;;;;;;;;;;;;;;;14.87;55.39;99146.34;5423785;32;34130;-72
2024/01/03 14:47:26;;;;;;;;;;;;;;;14.84;55.44;99158.00;5415093;32;34064;-70
2024/01/03 14:50:28;;;;;;;;;;;;;;;14.31;57.02;99148.78;5428258;32;34032;-70
2024/01/03 14:53:31;;;;;;;;;;;;;;;14.06;57.89;99144.47;5420437;32;33121;-72
2024/01/03 14:56:35;;;;;;;;;;;;;;;13.95;58.39;99147.87;5425040;32;32258;-70
2024/01/03 14:59:39;;;;;;;;;;;;;;;14.11;57.75;99147.63;5410779;32;34119;-71
2024/01/03 15:02:41;;;;;;;;;;;;;;;13.92;58.38;99139.34;5426502;32;34976;-75
2024/01/03 15:05:52;;;;;;;;;;;;;;;13.88;58.58;99138.72;5422980;32;34052;-71
2024/01/03 15:08:55;;;;;;;;;;;;;;;13.98;58.32;99144.19;5412851;32;33818;-75
2024/01/03 15:11:58;;;;;;;;;;;;;;;13.67;59.41;99156.13;5429219;32;33413;-75
2024/01/03 15:15:00;;;;;;;;;;;;;;;13.92;58.61;99148.13;5424159;32;34401;-74
2024/01/03 15:18:04;;;;;;;;;;;;;;;14.00;58.46;99156.31;5420774;32;33782;-72
2024/01/03 15:21:07;;;;;;;;;;;;;;;13.88;58.79;99151.09;5418389;32;33287;-70
2024/01/03 15:24:09;;;;;;;;;;;;;;;13.89;58.60;99148.31;5409829;32;34019;-73
2024/01/03 15:27:12;;;;;;;;;;;;;;;13.54;59.78;99146.44;5423007;32;33871;-71
2024/01/03 15:30:16;;;;;;;;;;;;;;;13.95;58.65;99139.97;5408855;32;34570;-72
2024/01/03 15:33:20;;;;;;;;;;;;;;;13.96;58.58;99141.63;5409359;32;34024;-75
2024/01/03 15:36:22;;;;;;;;;;;;;;;13.72;59.59;99146.91;5421323;32;33228;-72
2024/01/03 15:39:24;;;;;;;;;;;;;;;13.34;60.00;99141.72;5421161;32;33896;-74
2024/01/03 15:42:26;;;;;;;;;;;;;;;13.85;59.15;99136.31;5409647;32;33899;-71
2024/01/03 15:45:29;;;;;;;;;;;;;;;13.82;58.98;99132.06;5417644;32;33238;-73
2024/01/03 15:48:30;;;;;;;;;;;;;;;13.69;59.35;99135.72;5427607;32;33905;-76
2024/01/03 15:51:33;;;;;;;;;;;;;;;13.59;59.53;99145.22;5426061;32;33561;-75
2024/01/03 15:54:38;;;;;;;;;;;;;;;13.31;60.46;99141.06;5410453;32;33446;-77
2024/01/03 15:57:48;;;;;;;;;;;;;;;13.36;60.18;99147.72;5412504;32;33402;-72
2024/01/03 16:00:50;;;;;;;;;;;;;;;13.18;61.07;99139.25;5418931;32;33381;-75